Aérodrome :
LOGIN :

S'inscrire | Disclaimer

   EN    FR    IT 

 










Légende :    VFR   VFR Marginal   IFR   IFR Intensif   IFR Très Intensif
Visi : 
Plafond : 
>= 8 km
>= 3000ft
5 à 8 km
1000 à 3000 ft
1500m à 5 km
500 à 1000 ft
800 à 1500m
200 à 500 ft
< 800m
< 200 ft
Symboles :   Orages  Brouillard  Fortes neiges  Fortes précipitations  Vent > 20 kt
SIGMETs :   Divers  Orages  Givrage  Turbulence  Onde Orograph.  Cendres Volcan.







- Altitude de l'aérodrome : 49 ft
- Code IATA : SEN
- Voir les cartes d'approche


EGMC - Southend

DERNIER METAR :
  • 222150Z 12004KT 9999 -RA SCT014 BKN026 07/06 Q1011

METARs EXPIRÉS :
  • 222120Z 00000KT 9999 -RA FEW015 BKN035 05/03 Q1011
  • 222050Z 00000KT 9999 FEW044 06/04 Q1010
  • 222020Z 00000KT 9999 FEW040 07/04 Q1010
  • 221950Z 00000KT 9999 FEW024 07/04 Q1010
  • 221920Z 13004KT 9999 SCT027 SCT033 07/04 Q1010
  • 221850Z 17003KT 9999 FEW030 BKN044 07/04 Q1009

TAF TAF EGMC
Valide du 22 à 21h jusqu'au 23 à 06h UTC


221958Z 2221/2306 12003KT 9999 FEW025
TEMPO 2221/2306 7000 SHRA BKN014
BECMG 2303/2306 08013KT
PROB30
TEMPO 2303/2306 BKN008
Pas de NOTAMs connus pour ce terrain.



MET'MAP, la Météo Aéronautique d'un coup d'oeil ! - Copyright ORBIFLY Décembre 2007 - Disclaimer

ORBIFLY MET'MAP TEAM :

Programmation & Développement : Alexandra Zaïnal
Conception & Développement : Baudouin d'Aumeries
Co-Programmation & Développement : Marc-Olivier Méhu
Soutien technique & logistique : Manuel Goepfert

Contact : metmap@orbifly.com




SOURCES & CREDITS :

   NOAA